Time;durP1;ratioP1;P1;durP2;ratioP2;P2;SDS_P1;SDS_P2;PMS_P1;PMS_P2;Temp;Humidity;BMP_temperature;BMP_pressure;BME280_temperature;BME280_humidity;BME280_pressure;Samples;Min_cycle;Max_cycle;Signal;HPM_P1;HPM_P2
2023/03/15 00:02:02;;;;;;;78.73;29.43;;;;;;;-141.97;49.88;47624.78;5072693;28;20879;-89
2023/03/15 00:04:27;;;;;;;53.07;25.07;;;;;;;-141.97;50.30;47603.66;5072795;28;20419;-88
2023/03/15 00:06:53;;;;;;;42.27;20.30;;;;;;;-141.97;49.85;47549.84;5072949;28;20203;-89
2023/03/15 00:09:21;;;;;;;67.80;32.20;;;;;;;-141.97;50.08;47599.81;5073477;28;20665;-88
2023/03/15 00:11:47;;;;;;;91.47;38.00;;;;;;;-141.97;50.50;47492.16;5073336;28;20167;-89
2023/03/15 00:14:12;;;;;;;58.03;27.10;;;;;;;-141.97;50.50;47634.41;5073974;28;20465;-88
2023/03/15 00:16:37;;;;;;;62.50;25.93;;;;;;;-141.97;50.32;47499.84;5042772;28;20467;-91
2023/03/15 00:19:03;;;;;;;43.97;19.50;;;;;;;-141.97;50.35;47603.66;5052278;28;20655;-88
2023/03/15 00:21:28;;;;;;;32.87;15.57;;;;;;;-141.97;50.52;47534.44;5052226;28;20595;-89
2023/03/15 00:23:54;;;;;;;30.77;13.80;;;;;;;-141.97;50.52;47569.06;5035233;28;20180;-88
2023/03/15 00:26:20;;;;;;;24.10;11.80;;;;;;;-141.97;51.01;47595.97;5051937;28;20545;-89
2023/03/15 00:28:46;;;;;;;25.73;11.70;;;;;;;-141.97;50.77;47453.72;5034342;28;20519;-88
2023/03/15 00:31:15;;;;;;;20.90;10.57;;;;;;;-141.97;50.49;47522.91;5031611;28;20428;-88
2023/03/15 00:33:41;;;;;;;21.70;9.20;;;;;;;-141.97;51.18;47511.38;5047956;28;20193;-88
2023/03/15 00:36:08;;;;;;;23.43;8.93;;;;;;;-141.97;52.65;47619.03;5051785;28;20434;-88
2023/03/15 00:38:35;;;;;;;21.43;9.97;;;;;;;-141.97;52.60;47578.66;5052495;28;20178;-88
2023/03/15 00:41:20;;;;;;;22.83;9.90;;;;;;;-141.97;52.17;47622.88;5052138;28;20848;-89
2023/03/15 00:43:46;;;;;;;24.80;10.97;;;;;;;-141.97;52.23;47649.78;5033371;28;20427;-88
2023/03/15 00:46:12;;;;;;;19.17;9.47;;;;;;;-141.97;52.71;47503.69;5034735;28;20428;-89
2023/03/15 00:48:37;;;;;;;18.30;8.57;;;;;;;-141.97;52.70;47590.19;5047964;28;20444;-89
2023/03/15 00:51:06;;;;;;;18.07;9.40;;;;;;;-141.97;53.19;47640.16;5051976;28;20284;-88
2023/03/15 00:53:32;;;;;;;22.30;10.23;;;;;;;-141.97;53.53;47549.84;5033362;28;20464;-88
2023/03/15 00:56:02;;;;;;;22.03;11.07;;;;;;;-141.97;54.05;47630.56;5050451;28;20421;-89
2023/03/15 00:58:27;;;;;;;25.30;10.83;;;;;;;-141.97;54.66;47563.28;5039259;28;20435;-87
2023/03/15 01:00:52;;;;;;;29.17;12.90;;;;;;;-141.97;54.44;47665.16;5057160;28;20459;-87
2023/03/15 01:03:18;;;;;;;32.73;14.20;;;;;;;-141.97;54.48;47449.88;5050671;28;20553;-89
2023/03/15 01:05:43;;;;;;;32.97;15.63;;;;;;;-141.97;54.45;47632.47;5052357;28;20581;-88
2023/03/15 01:08:09;;;;;;;35.70;17.03;;;;;;;-141.97;54.42;47626.72;5033989;28;20181;-86
2023/03/15 01:10:34;;;;;;;36.10;15.93;;;;;;;-141.97;54.39;47619.03;5051078;28;20197;-88
2023/03/15 01:13:00;;;;;;;35.43;15.40;;;;;;;-141.97;54.16;47622.88;5033909;28;20203;-88
2023/03/15 01:15:25;;;;;;;28.50;14.80;;;;;;;-141.97;54.79;47619.03;5032893;28;20174;-88
2023/03/15 01:17:51;;;;;;;28.97;13.80;;;;;;;-141.97;56.39;47561.38;5073008;28;20263;-89
2023/03/15 01:20:16;;;;;;;33.53;15.93;;;;;;;-141.97;58.53;47484.47;5054405;28;20175;-89
2023/03/15 01:22:42;;;;;;;32.10;16.03;;;;;;;-141.97;59.10;47499.84;5071792;28;20497;-89
2023/03/15 01:25:08;;;;;;;39.63;18.50;;;;;;;-141.97;59.62;47505.63;5072630;28;20762;-88
2023/03/15 01:27:34;;;;;;;36.60;18.70;;;;;;;-141.97;60.29;47615.19;5053101;28;20651;-88
2023/03/15 01:29:59;;;;;;;47.73;22.30;;;;;;;-141.97;59.64;47617.09;5071830;28;20425;-89
2023/03/15 01:32:25;;;;;;;61.07;25.87;;;;;;;-141.97;59.41;47488.31;5053481;28;20174;-89
2023/03/15 01:34:50;;;;;;;42.30;21.67;;;;;;;-141.97;59.55;47624.78;5071606;28;20196;-89
2023/03/15 01:37:16;;;;;;;43.77;21.87;;;;;;;-141.97;60.89;47534.44;5055118;28;20185;-89
2023/03/15 01:39:41;;;;;;;48.17;21.90;;;;;;;-141.97;60.89;47653.63;5055518;28;21016;-88
2023/03/15 01:42:07;;;;;;;47.37;22.53;;;;;;;-141.97;61.63;47538.28;5075775;28;20176;-88
2023/03/15 01:44:58;;;;;;;46.93;23.43;;;;;;;-141.97;62.31;47569.06;5078327;28;20237;-88
2023/03/15 01:47:27;;;;;;;51.67;23.73;;;;;;;-141.97;62.81;47565.22;5095536;28;20181;-88
2023/03/15 01:50:05;;;;;;;48.70;22.40;;;;;;;-141.97;64.11;47632.47;5073263;28;20491;-88
2023/03/15 01:52:36;;;;;;;44.07;21.50;;;;;;;-141.97;64.22;47653.63;5064938;28;20422;-89
2023/03/15 01:55:10;;;;;;;49.17;23.37;;;;;;;-141.97;64.67;47580.59;5074926;28;20510;-88
2023/03/15 01:57:40;;;;;;;47.93;22.23;;;;;;;-141.97;64.89;47438.34;5074523;28;20421;-88
2023/03/15 02:00:10;;;;;;;46.57;22.60;;;;;;;-141.97;65.02;47584.44;5074379;28;20423;-88
2023/03/15 02:02:45;;;;;;;49.63;23.87;;;;;;;-141.97;64.56;47484.47;5074728;28;20425;-88
2023/03/15 02:05:17;;;;;;;56.60;27.07;;;;;;;-141.97;64.05;47499.84;5075037;28;20974;-88
2023/03/15 02:07:48;;;;;;;48.23;23.87;;;;;;;-141.97;64.03;47526.75;5057379;28;20422;-89
2023/03/15 02:10:17;;;;;;;47.93;22.37;;;;;;;-141.97;63.14;47649.78;5075890;28;20492;-87
2023/03/15 02:12:47;;;;;;;44.90;21.83;;;;;;;-141.97;63.00;47492.16;5074934;28;20414;-88
2023/03/15 02:15:13;;;;;;;50.07;21.30;;;;;;;-141.97;62.87;47617.09;5077621;28;20946;-86
2023/03/15 02:17:42;;;;;;;47.67;22.73;;;;;;;-141.97;63.56;47430.66;5071902;28;20548;-88
2023/03/15 02:20:26;;;;;;;50.90;23.13;;;;;;;-141.97;63.41;47582.50;5069363;28;20559;-88
2023/03/15 02:23:04;;;;;;;46.67;23.50;;;;;;;-141.97;63.71;47588.28;5053156;28;20431;-89
2023/03/15 02:25:39;;;;;;;46.83;22.67;;;;;;;-141.97;63.90;47584.44;5068266;28;20425;-89
2023/03/15 02:28:06;;;;;;;45.13;22.13;;;;;;;-141.97;63.93;47580.59;5052380;28;20423;-88
2023/03/15 02:30:32;;;;;;;49.17;23.03;;;;;;;-141.97;63.73;47476.78;5072732;28;20923;-88
2023/03/15 02:33:02;;;;;;;49.30;23.03;;;;;;;-141.97;64.46;47634.41;5069843;28;20541;-89
2023/03/15 02:35:30;;;;;;;46.67;23.23;;;;;;;-141.97;65.73;47440.28;5054894;28;20172;-88
2023/03/15 02:37:57;;;;;;;46.33;21.93;;;;;;;-141.97;65.84;47557.53;5071632;28;20426;-88
2023/03/15 02:40:26;;;;;;;45.73;22.80;;;;;;;-141.97;66.38;47540.22;5057635;28;20412;-87
2023/03/15 02:42:57;;;;;;;48.27;23.53;;;;;;;-141.97;66.28;47572.91;5075061;28;20458;-87
2023/03/15 02:45:25;;;;;;;49.80;23.13;;;;;;;-141.97;65.27;47669.00;5060022;28;20427;-85
2023/03/15 02:47:52;;;;;;;51.53;23.63;;;;;;;-141.97;64.22;47509.47;5092767;28;20477;-88
2023/03/15 02:50:18;;;;;;;52.70;24.77;;;;;;;-141.97;64.45;47530.59;5059043;28;20487;-88
2023/03/15 02:52:43;;;;;;;54.10;22.83;;;;;;;-141.97;64.23;47632.47;5057128;28;20428;-88
2023/03/15 02:55:09;;;;;;;55.43;24.23;;;;;;;-141.97;64.49;47653.63;5074540;28;20627;-88
2023/03/15 02:57:34;;;;;;;54.50;23.47;;;;;;;-141.97;64.76;47532.53;5073800;28;20185;-87
2023/03/15 03:00:13;;;;;;;52.37;23.43;;;;;;;-141.97;65.38;47465.25;5075207;28;20173;-87
2023/03/15 03:02:40;;;;;;;45.23;22.93;;;;;;;-141.97;64.77;47517.16;5059026;28;20179;-87
2023/03/15 03:05:06;;;;;;;52.67;23.57;;;;;;;-141.97;65.09;47580.59;5076575;28;20430;-88
2023/03/15 03:07:32;;;;;;;50.83;23.37;;;;;;;-141.97;64.73;47630.56;5075446;28;20423;-87
2023/03/15 03:09:57;;;;;;;50.80;22.87;;;;;;;-141.97;64.47;47472.94;5053505;28;20532;-87
2023/03/15 03:12:23;;;;;;;46.77;22.73;;;;;;;-141.97;64.60;47594.03;5074021;28;20234;-87
2023/03/15 03:14:48;;;;;;;53.47;24.87;;;;;;;-141.97;65.24;47651.69;5072536;28;20196;-88
2023/03/15 03:17:13;;;;;;;55.40;24.30;;;;;;;-141.97;65.29;47588.28;5055036;28;20229;-88
2023/03/15 03:19:39;;;;;;;56.40;25.00;;;;;;;-141.97;65.38;47572.91;5055945;28;21639;-88
2023/03/15 03:22:05;;;;;;;50.57;23.13;;;;;;;-141.97;64.80;47496.00;5055065;28;20179;-88
2023/03/15 03:24:31;;;;;;;53.17;25.03;;;;;;;-141.97;65.58;47630.56;5055095;28;20177;-87
2023/03/15 03:26:56;;;;;;;54.63;23.77;;;;;;;-141.97;65.70;47594.03;5072905;28;20181;-88
2023/03/15 03:29:23;;;;;;;54.30;23.03;;;;;;;-141.97;65.99;47496.00;5073133;28;20445;-88
2023/03/15 03:31:48;;;;;;;53.17;23.37;;;;;;;-141.97;65.18;47499.84;5054648;28;20536;-87
2023/03/15 03:34:14;;;;;;;48.80;21.47;;;;;;;-141.97;64.60;47615.19;5072294;28;20469;-88
2023/03/15 03:36:41;;;;;;;58.23;23.87;;;;;;;-141.97;64.12;47530.59;5072057;28;20184;-89
2023/03/15 03:39:07;;;;;;;66.07;25.63;;;;;;;-141.97;63.45;47645.94;5072509;28;20172;-87
2023/03/15 03:41:33;;;;;;;139.93;51.47;;;;;;;-141.97;63.16;47609.41;5072299;28;20422;-88
2023/03/15 03:43:58;;;;;;;98.37;35.87;;;;;;;-141.97;62.82;47584.44;5055738;28;20165;-87
2023/03/15 03:46:24;;;;;;;85.03;32.87;;;;;;;-141.97;63.43;47609.41;5054642;28;20185;-88
2023/03/15 03:48:49;;;;;;;71.37;27.93;;;;;;;-141.97;63.60;47540.22;5072925;28;20210;-88
2023/03/15 03:51:15;;;;;;;78.67;31.80;;;;;;;-141.97;62.20;47434.50;5075295;28;20181;-88
2023/03/15 03:53:40;;;;;;;95.83;38.77;;;;;;;-141.97;62.19;47615.19;5071510;28;20197;-87
2023/03/15 03:56:07;;;;;;;86.90;38.60;;;;;;;-141.97;62.54;47519.06;5054089;28;20188;-88
2023/03/15 03:58:32;;;;;;;64.70;30.23;;;;;;;-141.97;63.05;47469.09;5072053;28;20168;-87
2023/03/15 04:00:58;;;;;;;47.40;21.57;;;;;;;-141.97;63.45;47507.53;5054584;28;20423;-88
2023/03/15 04:03:26;;;;;;;47.93;21.03;;;;;;;-141.97;64.00;47613.25;5054787;28;20679;-87
2023/03/15 04:05:52;;;;;;;47.33;22.80;;;;;;;-141.97;64.13;47524.84;5071445;28;20204;-87
2023/03/15 04:08:18;;;;;;;54.20;27.07;;;;;;;-141.97;64.25;47542.16;5072224;28;20479;-87
2023/03/15 04:10:43;;;;;;;51.50;25.83;;;;;;;-141.97;63.95;47513.31;5071789;28;20481;-87
2023/03/15 04:13:08;;;;;;;55.37;25.87;;;;;;;-141.97;63.46;47632.47;5071220;28;20287;-87
2023/03/15 04:15:34;;;;;;;44.77;23.67;;;;;;;-141.97;62.79;47499.84;5053808;28;20181;-87
2023/03/15 04:18:04;;;;;;;41.57;20.07;;;;;;;-141.97;64.17;47574.81;5072596;28;20306;-88
2023/03/15 04:20:33;;;;;;;43.97;19.97;;;;;;;-141.97;65.67;47586.34;5058277;28;20276;-88
2023/03/15 04:22:59;;;;;;;44.23;19.87;;;;;;;-141.97;65.06;47438.34;5053716;28;20411;-88
2023/03/15 04:25:25;;;;;;;53.87;22.60;;;;;;;-141.97;64.81;47484.47;5053219;28;20415;-89
2023/03/15 04:27:57;;;;;;;56.03;23.67;;;;;;;-141.97;64.47;47524.84;5053170;28;20477;-88
2023/03/15 04:30:28;;;;;;;53.30;24.03;;;;;;;-141.97;63.99;47630.56;5035052;28;20294;-88
2023/03/15 04:33:02;;;;;;;80.43;35.67;;;;;;;-141.97;63.84;47565.22;5073451;28;20419;-87
2023/03/15 04:35:33;;;;;;;82.20;37.27;;;;;;;-141.97;62.95;47661.31;5071744;28;20508;-87
2023/03/15 04:37:59;;;;;;;90.87;40.33;;;;;;;-141.97;63.01;47549.84;5050356;28;20507;-88
2023/03/15 04:40:25;;;;;;;89.70;37.07;;;;;;;-141.97;63.10;47588.28;5071398;28;20445;-87
2023/03/15 04:42:55;;;;;;;70.20;30.63;;;;;;;-141.97;62.81;47590.19;5075861;28;20523;-88
2023/03/15 04:45:24;;;;;;;56.80;23.93;;;;;;;-141.97;63.46;47503.69;5053580;28;20423;-88
2023/03/15 04:47:51;;;;;;;60.40;24.17;;;;;;;-141.97;63.98;47613.25;5073990;28;20411;-88
2023/03/15 04:50:17;;;;;;;52.90;21.97;;;;;;;-141.97;64.57;47584.44;5053251;28;20420;-87
2023/03/15 04:52:42;;;;;;;35.40;15.73;;;;;;;-141.97;66.29;47619.03;5074951;28;20425;-88
2023/03/15 04:55:08;;;;;;;33.23;15.70;;;;;;;-141.97;68.83;47642.09;5071660;28;20176;-88
2023/03/15 04:57:34;;;;;;;38.50;16.80;;;;;;;-141.97;68.27;47519.06;5070688;28;20184;-88
2023/03/15 04:59:59;;;;;;;32.20;15.10;;;;;;;-141.97;68.33;47570.97;5053286;28;20419;-87
2023/03/15 05:02:25;;;;;;;33.40;16.83;;;;;;;-141.97;68.81;47615.19;5075682;28;20248;-88
2023/03/15 05:04:50;;;;;;;41.77;17.13;;;;;;;-141.97;68.10;47511.38;5071312;28;20207;-88
2023/03/15 05:07:16;;;;;;;34.27;15.37;;;;;;;-141.97;69.10;47661.31;5053943;28;20245;-89
2023/03/15 05:09:44;;;;;;;28.00;13.00;;;;;;;-141.97;70.35;47457.56;5070999;28;20260;-88
2023/03/15 05:12:11;;;;;;;34.23;13.60;;;;;;;-141.97;70.45;47484.47;5053499;28;20164;-88
2023/03/15 05:14:36;;;;;;;24.70;12.40;;;;;;;-141.97;70.80;47669.00;5053404;28;20453;-88
2023/03/15 05:17:02;;;;;;;33.60;14.00;;;;;;;-141.97;70.73;47474.88;5053085;28;20470;-87
2023/03/15 05:19:28;;;;;;;29.20;12.33;;;;;;;-141.97;70.70;47482.56;5052790;28;20260;-87
2023/03/15 05:21:54;;;;;;;29.30;12.40;;;;;;;-141.97;70.07;47669.00;5055825;28;20459;-88
2023/03/15 05:24:20;;;;;;;29.27;13.10;;;;;;;-141.97;70.56;47605.56;5074380;28;20192;-87
2023/03/15 05:26:45;;;;;;;34.10;13.00;;;;;;;-141.97;70.86;47478.72;5075039;28;20241;-87
2023/03/15 05:29:14;;;;;;;34.43;14.07;;;;;;;-141.97;70.72;47509.47;5057047;28;20426;-89
2023/03/15 05:31:39;;;;;;;34.53;14.37;;;;;;;-141.97;70.89;47517.16;5046836;28;20604;-89
2023/03/15 05:34:06;;;;;;;27.30;12.20;;;;;;;-141.97;70.97;47530.59;5057234;28;20554;-88
2023/03/15 05:36:33;;;;;;;29.83;12.13;;;;;;;-141.97;70.58;47569.06;5074793;28;20165;-89
2023/03/15 05:39:04;;;;;;;27.33;12.30;;;;;;;-141.97;70.73;47657.47;5075808;28;20422;-89
2023/03/15 05:41:30;;;;;;;27.77;12.70;;;;;;;-141.97;71.02;47653.63;5059748;28;20933;-91
2023/03/15 05:43:56;;;;;;;26.43;12.63;;;;;;;-141.97;71.49;47555.59;5057385;28;20443;-88
2023/03/15 05:46:21;;;;;;;30.53;12.77;;;;;;;-141.97;71.38;47480.63;5057513;28;20435;-90
2023/03/15 05:48:48;;;;;;;28.43;13.43;;;;;;;-141.97;71.13;47588.28;5058121;28;20169;-90
2023/03/15 05:51:16;;;;;;;27.30;11.93;;;;;;;-141.97;71.57;47657.47;5058957;28;20173;-89
2023/03/15 05:53:42;;;;;;;27.83;11.80;;;;;;;-141.97;71.74;47511.38;5062821;28;20457;-90
2023/03/15 05:56:10;;;;;;;28.27;11.87;;;;;;;-141.97;71.50;47546.00;5094267;28;20442;-91
2023/03/15 05:58:36;;;;;;;39.40;17.10;;;;;;;-141.97;71.42;47517.16;5066274;28;20624;-91
2023/03/15 06:01:03;;;;;;;28.93;15.90;;;;;;;-141.97;70.88;47642.09;5058094;28;20468;-90
2023/03/15 06:03:30;;;;;;;35.37;13.03;;;;;;;-141.97;70.09;47544.06;5077734;28;20172;-90
2023/03/15 06:05:57;;;;;;;30.47;12.10;;;;;;;-141.97;68.97;47626.72;5080406;28;20440;-90
2023/03/15 06:08:22;;;;;;;28.97;12.97;;;;;;;-141.97;68.74;47584.44;5031845;28;20858;-91
2023/03/15 06:10:48;;;;;;;27.70;13.30;;;;;;;-141.97;68.29;47642.09;5015614;28;20456;-89
2023/03/15 06:13:13;;;;;;;30.63;13.70;;;;;;;-141.97;66.68;47590.19;5033899;28;20596;-88
2023/03/15 06:15:39;;;;;;;32.27;13.43;;;;;;;-141.97;65.64;47607.50;5031460;28;20798;-85
2023/03/15 06:18:04;;;;;;;27.87;13.23;;;;;;;-141.97;64.86;47599.81;5031458;28;20244;-85
2023/03/15 06:20:30;;;;;;;30.53;13.37;;;;;;;-141.97;64.41;47565.22;5031646;28;20193;-85
2023/03/15 06:22:56;;;;;;;25.47;12.80;;;;;;;-141.97;64.20;47588.28;5032520;28;20180;-86
2023/03/15 06:25:22;;;;;;;26.10;12.57;;;;;;;-141.97;65.13;47640.16;5031300;28;20834;-85
2023/03/15 06:27:47;;;;;;;29.60;13.83;;;;;;;-141.97;64.76;47565.22;5031190;28;20173;-85
2023/03/15 06:30:13;;;;;;;24.67;12.70;;;;;;;-141.97;63.76;47661.31;5030691;28;20173;-85
2023/03/15 06:32:39;;;;;;;29.37;12.87;;;;;;;-141.97;64.23;47613.25;5021398;28;20261;-85
2023/03/15 06:35:05;;;;;;;25.77;12.80;;;;;;;-141.97;63.71;47686.31;5030182;28;20193;-85
2023/03/15 06:37:30;;;;;;;25.57;12.73;;;;;;;-141.97;63.22;47611.34;5013767;28;20221;-86
2023/03/15 06:39:55;;;;;;;28.53;14.10;;;;;;;-141.97;63.02;47676.69;5030589;28;20454;-85
2023/03/15 06:42:21;;;;;;;31.40;13.57;;;;;;;-141.97;64.28;47551.75;5031263;28;20178;-85
2023/03/15 06:44:46;;;;;;;28.20;13.67;;;;;;;-141.97;63.36;47630.56;5033824;28;20533;-86
2023/03/15 06:47:12;;;;;;;27.37;12.40;;;;;;;-141.97;63.57;47607.50;5072609;28;20168;-85
2023/03/15 06:49:37;;;;;;;28.20;14.50;;;;;;;-141.97;61.73;47599.81;5073448;28;20636;-86
2023/03/15 06:52:04;;;;;;;27.50;13.77;;;;;;;-141.97;61.59;47580.59;5072413;28;20620;-87
2023/03/15 06:54:30;;;;;;;42.43;18.87;;;;;;;-141.97;63.52;47595.97;5072001;28;20180;-85
2023/03/15 06:56:56;;;;;;;32.03;15.70;;;;;;;-141.97;63.14;47695.91;5072392;28;20426;-86
2023/03/15 06:59:22;;;;;;;37.63;19.07;;;;;;;-141.97;61.52;47538.28;5054343;28;20165;-87
2023/03/15 07:01:47;;;;;;;37.20;16.90;;;;;;;-141.97;60.74;47499.84;5071622;28;20468;-85
2023/03/15 07:04:13;;;;;;;31.27;16.03;;;;;;;-141.97;59.11;47676.69;5072530;28;20650;-85
2023/03/15 07:06:39;;;;;;;27.10;14.80;;;;;;;-141.97;57.60;47640.16;5072938;28;20177;-86
2023/03/15 07:09:05;;;;;;;31.17;14.87;;;;;;;-141.97;58.43;47605.56;5072984;28;20167;-86
2023/03/15 07:14:33;;;;;;;31.40;15.40;;;;;;;-141.97;57.57;47557.53;5152199;27;20585;-85
2023/03/15 07:16:58;;;;;;;30.30;14.30;;;;;;;-141.97;57.83;47567.13;5111715;28;20444;-85
2023/03/15 07:19:24;;;;;;;26.67;14.03;;;;;;;-141.97;57.23;47597.88;5098961;28;20426;-87
2023/03/15 07:21:49;;;;;;;27.97;15.37;;;;;;;-141.97;57.48;47607.50;5109716;28;20665;-87
2023/03/15 07:24:14;;;;;;;26.60;14.67;;;;;;;-141.97;57.86;47601.72;5103219;28;20232;-87
2023/03/15 07:26:40;;;;;;;26.23;14.13;;;;;;;-141.97;58.91;47463.34;5094778;28;20222;-84
2023/03/15 07:29:05;;;;;;;28.63;13.43;;;;;;;-141.97;56.03;47567.13;5098973;28;20172;-85
2023/03/15 07:31:31;;;;;;;27.17;13.60;;;;;;;-141.97;57.00;47665.16;5067137;28;20245;-85
2023/03/15 07:33:56;;;;;;;27.63;13.93;;;;;;;-141.97;56.27;47684.38;5032710;28;20557;-86
2023/03/15 07:36:22;;;;;;;27.13;14.30;;;;;;;-141.97;56.50;47592.13;5043809;28;20242;-85
2023/03/15 07:38:47;;;;;;;27.90;15.30;;;;;;;-141.97;55.78;47624.78;5033409;28;20185;-86
2023/03/15 07:41:13;;;;;;;26.60;13.93;;;;;;;-141.97;55.29;47524.84;5036763;28;20175;-86
2023/03/15 07:43:38;;;;;;;27.37;13.77;;;;;;;-141.97;55.05;47597.88;5016360;28;20562;-85
2023/03/15 07:46:04;;;;;;;27.73;14.03;;;;;;;-141.97;53.81;47715.13;5038313;28;20619;-85
2023/03/15 07:48:30;;;;;;;24.23;12.33;;;;;;;-141.97;54.32;47505.63;5023688;28;20638;-84
2023/03/15 07:50:55;;;;;;;24.07;12.97;;;;;;;-141.97;55.64;47688.22;5034115;28;20436;-85
2023/03/15 07:53:21;;;;;;;26.33;13.13;;;;;;;-141.97;55.39;47680.53;5034299;28;20225;-85
2023/03/15 07:55:47;;;;;;;30.33;13.23;;;;;;;-141.97;55.61;47626.72;5040368;28;20225;-85
2023/03/15 07:58:12;;;;;;;25.40;13.43;;;;;;;-141.97;55.25;47563.28;5032180;28;20190;-83
2023/03/15 08:00:38;;;;;;;27.07;13.47;;;;;;;-141.97;53.98;47611.34;5038855;28;20262;-85
2023/03/15 08:03:04;;;;;;;26.00;13.20;;;;;;;-141.97;53.72;47576.75;5036910;28;20537;-85
2023/03/15 08:05:29;;;;;;;22.90;12.30;;;;;;;-141.97;53.10;47663.22;5033410;28;20737;-83
2023/03/15 08:07:55;;;;;;;26.27;13.90;;;;;;;-141.97;52.60;47569.06;5041191;28;20454;-86
2023/03/15 08:10:20;;;;;;;26.73;14.23;;;;;;;-141.97;52.69;47569.06;5031367;28;20186;-85
2023/03/15 08:12:46;;;;;;;23.30;12.40;;;;;;;-141.97;53.45;47599.81;5038273;28;20265;-86
2023/03/15 08:15:13;;;;;;;20.83;12.30;;;;;;;-141.97;52.75;47676.69;5037741;28;20225;-84
2023/03/15 08:20:35;;;;;;;27.23;12.10;;;;;;;-141.97;51.75;47542.16;5071029;28;20561;-85
2023/03/15 08:23:00;;;;;;;24.20;12.33;;;;;;;-141.97;49.22;47586.34;5065896;28;20676;-85
2023/03/15 08:25:26;;;;;;;21.83;12.47;;;;;;;-141.97;50.50;47570.97;5065875;28;20185;-85
2023/03/15 08:27:51;;;;;;;23.47;12.40;;;;;;;-141.97;49.75;47686.31;5061683;28;20264;-85
2023/03/15 08:30:18;;;;;;;21.30;12.30;;;;;;;-141.97;49.29;47503.69;5056495;28;20235;-86
2023/03/15 08:32:46;;;;;;;21.73;11.90;;;;;;;-141.97;50.83;47595.97;5040862;28;20689;-85
2023/03/15 08:35:14;;;;;;;23.53;12.40;;;;;;;-141.97;52.30;47599.81;5054185;28;22050;-87
2023/03/15 08:37:39;;;;;;;25.77;13.40;;;;;;;-141.97;51.56;47519.06;5064805;28;20180;-85
2023/03/15 08:40:10;;;;;;;22.93;13.33;;;;;;;-141.97;51.72;47651.69;5067222;28;20208;-86
2023/03/15 08:42:38;;;;;;;27.63;14.17;;;;;;;-141.97;50.44;47546.00;5066241;28;20184;-86
2023/03/15 08:45:05;;;;;;;25.40;13.33;;;;;;;-141.97;47.50;47563.28;5066416;28;20185;-86
2023/03/15 08:47:34;;;;;;;26.40;13.67;;;;;;;-141.97;47.14;47519.06;5065152;28;20184;-84
2023/03/15 08:50:07;;;;;;;23.80;13.93;;;;;;;-141.97;46.79;47669.00;5060383;28;20184;-85
2023/03/15 08:52:32;;;;;;;27.20;13.80;;;;;;;-141.97;48.82;47640.16;5055350;28;20173;-85
2023/03/15 08:54:58;;;;;;;24.83;13.43;;;;;;;-141.97;49.09;47592.13;5065359;28;20623;-83
2023/03/15 08:57:27;;;;;;;27.93;13.93;;;;;;;-141.97;50.48;47576.75;5063361;28;20176;-87
2023/03/15 08:59:56;;;;;;;26.03;14.43;;;;;;;-141.97;50.23;47553.69;5085217;28;20209;-89
2023/03/15 09:02:30;;;;;;;26.90;15.37;;;;;;;-141.97;49.63;47519.06;5051951;28;20192;-91
2023/03/15 09:04:56;;;;;;;31.77;15.10;;;;;;;-141.97;49.99;47680.53;5050283;28;20243;-92
2023/03/15 09:07:21;;;;;;;27.83;14.70;;;;;;;-141.97;49.94;47680.53;5070721;28;20200;-90
2023/03/15 09:09:47;;;;;;;28.23;15.30;;;;;;;-141.97;47.30;47684.38;5073641;28;20177;-89
2023/03/15 09:12:16;;;;;;;29.83;14.60;;;;;;;-141.97;45.29;47649.78;5065381;28;20191;-88
2023/03/15 09:14:42;;;;;;;27.10;15.37;;;;;;;-141.97;43.35;47524.84;5077516;28;20181;-88
2023/03/15 09:17:09;;;;;;;24.93;14.73;;;;;;;-141.97;42.74;47494.09;5078837;28;20285;-90
2023/03/15 09:19:34;;;;;;;27.60;14.87;;;;;;;-141.97;43.49;47555.59;5071890;28;20236;-89
2023/03/15 09:21:59;;;;;;;25.30;14.80;;;;;;;-141.97;43.21;47530.59;5062531;28;20185;-88
2023/03/15 09:24:25;;;;;;;29.27;15.10;;;;;;;-141.97;43.12;47565.22;5043342;28;20337;-88
2023/03/15 09:26:50;;;;;;;31.83;15.93;;;;;;;-141.97;42.11;47674.78;5055843;28;20184;-90
2023/03/15 09:29:15;;;;;;;26.73;14.33;;;;;;;-141.97;41.93;47538.28;5049746;28;20209;-88
2023/03/15 09:31:41;;;;;;;27.67;13.53;;;;;;;-141.97;41.58;47482.56;5055783;28;20173;-88
2023/03/15 09:34:06;;;;;;;28.20;14.40;;;;;;;-141.97;40.61;47496.00;5056150;28;20230;-90
2023/03/15 09:36:32;;;;;;;23.93;13.80;;;;;;;-141.97;40.72;47515.22;5051306;28;20192;-89
2023/03/15 09:39:00;;;;;;;24.33;13.47;;;;;;;-141.97;39.42;47597.88;5057030;28;20217;-89
2023/03/15 09:41:48;;;;;;;25.57;14.90;;;;;;;-141.97;39.42;47599.81;5060870;28;20454;-88
2023/03/15 09:44:32;;;;;;;26.90;15.30;;;;;;;-141.97;39.73;47584.44;5072800;28;20182;-88
2023/03/15 09:47:37;;;;;;;54.27;26.97;;;;;;;-141.97;39.56;47586.34;5034704;28;20185;-89
2023/03/15 09:50:21;;;;;;;31.40;15.50;;;;;;;-141.97;39.59;47597.88;5070043;28;20265;-88
2023/03/15 09:53:15;;;;;;;23.20;14.87;;;;;;;-141.97;39.15;47580.59;5041493;28;20180;-88
2023/03/15 09:55:43;;;;;;;28.47;16.37;;;;;;;-141.97;38.15;47582.50;5057624;28;20200;-88
2023/03/15 09:58:17;;;;;;;26.20;15.03;;;;;;;-141.97;38.36;47603.66;5039161;28;20614;-89
2023/03/15 10:00:46;;;;;;;28.10;15.80;;;;;;;-141.97;38.57;47569.06;5051717;28;20193;-88
2023/03/15 10:03:20;;;;;;;28.90;14.63;;;;;;;-141.97;38.81;47565.22;5058755;28;20177;-88
2023/03/15 10:05:58;;;;;;;27.07;15.43;;;;;;;-141.97;39.14;47599.81;5067257;28;20232;-87
2023/03/15 10:08:24;;;;;;;27.67;15.57;;;;;;;-141.97;38.18;47701.69;5052682;28;20198;-90
2023/03/15 10:11:19;;;;;;;24.40;14.93;;;;;;;-141.97;39.35;47503.69;5035874;28;20266;-89
2023/03/15 10:14:01;;;;;;;30.20;15.60;;;;;;;-141.97;39.05;47546.00;5019231;28;20285;-88
2023/03/15 10:16:41;;;;;;;27.77;16.70;;;;;;;-141.97;40.54;47592.13;5042376;28;20249;-87
2023/03/15 10:19:21;;;;;;;34.17;16.00;;;;;;;-141.97;40.87;47561.38;5041600;28;20242;-88
2023/03/15 10:21:54;;;;;;;30.83;16.63;;;;;;;-141.97;40.60;47647.84;5043782;28;20177;-88
2023/03/15 10:24:45;;;;;;;28.80;16.23;;;;;;;-141.97;40.68;47490.25;5061639;28;20190;-89
2023/03/15 10:27:21;;;;;;;26.07;15.83;;;;;;;-141.97;41.13;47592.13;4998663;28;20199;-85
2023/03/15 10:29:49;;;;;;;34.73;20.57;;;;;;;-141.97;40.26;47553.69;5001447;28;20281;-87
2023/03/15 10:32:21;;;;;;;31.53;18.07;;;;;;;-141.97;39.50;47592.13;5016715;28;20199;-85
2023/03/15 10:34:55;;;;;;;31.63;17.83;;;;;;;-141.97;39.09;47486.41;5001513;28;20206;-90
2023/03/15 10:37:25;;;;;;;36.00;16.43;;;;;;;-141.97;38.97;47480.63;5017498;28;20657;-87
2023/03/15 10:39:57;;;;;;;32.53;16.43;;;;;;;-141.97;38.58;47592.13;5014148;28;20202;-88
2023/03/15 10:42:32;;;;;;;25.10;15.30;;;;;;;-141.97;38.70;47442.19;4998362;28;20210;-88
2023/03/15 10:45:11;;;;;;;26.10;15.40;;;;;;;-141.97;39.05;47584.44;4996473;28;20255;-87
2023/03/15 10:47:42;;;;;;;25.73;15.67;;;;;;;-141.97;38.52;47490.25;4982214;28;20186;-88
2023/03/15 10:50:09;;;;;;;29.23;15.70;;;;;;;-141.97;38.85;47542.16;4977619;28;20183;-88
2023/03/15 10:52:40;;;;;;;30.07;16.07;;;;;;;-141.97;39.23;47511.38;4991059;28;20160;-83
2023/03/15 10:55:15;;;;;;;25.97;14.93;;;;;;;-141.97;38.88;47588.28;4988593;28;20568;-88
2023/03/15 10:57:52;;;;;;;29.53;16.73;;;;;;;-141.97;38.27;47569.06;4997913;28;20743;-88
2023/03/15 11:00:35;;;;;;;26.53;15.10;;;;;;;-141.97;39.74;47586.34;4995480;28;20270;-89
2023/03/15 11:03:19;;;;;;;28.50;16.30;;;;;;;-141.97;40.22;47580.59;4976491;28;20213;-89
2023/03/15 11:05:57;;;;;;;28.93;16.23;;;;;;;-141.97;41.48;47513.31;5032931;28;20186;-88
2023/03/15 11:08:38;;;;;;;32.83;16.43;;;;;;;-141.97;40.19;47513.31;5004585;28;20233;-93
2023/03/15 11:11:05;;;;;;;31.67;16.30;;;;;;;-141.97;39.74;47559.44;5027552;28;20182;-88
2023/03/15 11:13:33;;;;;;;29.07;16.33;;;;;;;-141.97;39.89;47549.84;5020813;28;20167;-88